sensor_id;sensor_type;location;lat;lon;timestamp;pressure;altitude;pressure_sealevel;temperature;humidity
50057;BME280;36875;49.468;11.200;2023-04-24T00:02:22;96917.38;;;20.01;44.18
50057;BME280;36875;49.468;11.200;2023-04-24T00:04:50;96930.38;;;20.04;44.46
50057;BME280;36875;49.468;11.200;2023-04-24T00:07:16;96929.44;;;20.00;44.34
50057;BME280;36875;49.468;11.200;2023-04-24T00:09:43;96927.97;;;20.02;44.31
50057;BME280;36875;49.468;11.200;2023-04-24T00:12:09;96924.31;;;19.98;44.28
50057;BME280;36875;49.468;11.200;2023-04-24T00:14:35;96915.66;;;19.96;44.20
50057;BME280;36875;49.468;11.200;2023-04-24T00:17:00;96909.75;;;19.94;43.94
50057;BME280;36875;49.468;11.200;2023-04-24T00:19:27;96918.53;;;20.00;44.36
50057;BME280;36875;49.468;11.200;2023-04-24T00:21:55;96918.97;;;20.02;44.20
50057;BME280;36875;49.468;11.200;2023-04-24T00:24:20;96907.94;;;19.98;44.24
50057;BME280;36875;49.468;11.200;2023-04-24T00:26:46;96910.66;;;19.98;44.21
50057;BME280;36875;49.468;11.200;2023-04-24T00:29:12;96913.72;;;19.97;44.13
50057;BME280;36875;49.468;11.200;2023-04-24T00:31:38;96917.56;;;19.96;44.02
50057;BME280;36875;49.468;11.200;2023-04-24T00:34:04;96924.31;;;19.98;43.92
50057;BME280;36875;49.468;11.200;2023-04-24T00:36:30;96916.78;;;19.95;44.36
50057;BME280;36875;49.468;11.200;2023-04-24T00:38:57;96910.28;;;19.88;44.02
50057;BME280;36875;49.468;11.200;2023-04-24T00:41:24;96916.00;;;19.95;43.96
50057;BME280;36875;49.468;11.200;2023-04-24T00:43:49;96905.72;;;19.92;43.85
50057;BME280;36875;49.468;11.200;2023-04-24T00:46:16;96919.66;;;19.99;43.86
50057;BME280;36875;49.468;11.200;2023-04-24T00:48:42;96897.28;;;19.84;44.24
50057;BME280;36875;49.468;11.200;2023-04-24T00:51:09;96907.34;;;19.93;43.93
50057;BME280;36875;49.468;11.200;2023-04-24T00:53:35;96899.94;;;19.93;44.06
50057;BME280;36875;49.468;11.200;2023-04-24T00:56:02;96883.63;;;19.84;43.87
50057;BME280;36875;49.468;11.200;2023-04-24T00:58:28;96895.59;;;19.92;43.77
50057;BME280;36875;49.468;11.200;2023-04-24T01:00:54;96899.75;;;19.98;43.76
50057;BME280;36875;49.468;11.200;2023-04-24T01:03:21;96887.41;;;19.92;43.84
50057;BME280;36875;49.468;11.200;2023-04-24T01:05:48;96890.00;;;19.89;43.53
50057;BME280;36875;49.468;11.200;2023-04-24T01:08:14;96881.34;;;19.87;43.73
50057;BME280;36875;49.468;11.200;2023-04-24T01:10:40;96902.81;;;19.97;43.80
50057;BME280;36875;49.468;11.200;2023-04-24T01:13:08;96896.28;;;19.89;43.86
50057;BME280;36875;49.468;11.200;2023-04-24T01:15:34;96908.91;;;19.94;43.77
50057;BME280;36875;49.468;11.200;2023-04-24T01:17:59;96889.09;;;19.84;43.83
50057;BME280;36875;49.468;11.200;2023-04-24T01:20:25;96908.78;;;19.90;43.76
50057;BME280;36875;49.468;11.200;2023-04-24T01:22:54;96864.66;;;19.67;43.97
50057;BME280;36875;49.468;11.200;2023-04-24T01:25:20;96902.53;;;19.90;43.84
50057;BME280;36875;49.468;11.200;2023-04-24T01:27:45;96912.13;;;19.96;43.70
50057;BME280;36875;49.468;11.200;2023-04-24T01:30:12;96900.94;;;19.89;43.56
50057;BME280;36875;49.468;11.200;2023-04-24T01:32:38;96888.97;;;19.81;43.95
50057;BME280;36875;49.468;11.200;2023-04-24T01:35:06;96890.91;;;19.80;43.96
50057;BME280;36875;49.468;11.200;2023-04-24T01:37:32;96898.44;;;19.83;43.59
50057;BME280;36875;49.468;11.200;2023-04-24T01:39:59;96909.25;;;19.92;43.64
50057;BME280;36875;49.468;11.200;2023-04-24T01:42:25;96904.16;;;19.91;43.79
50057;BME280;36875;49.468;11.200;2023-04-24T01:44:51;96897.75;;;19.87;43.74
50057;BME280;36875;49.468;11.200;2023-04-24T01:47:17;96876.19;;;19.73;43.63
50057;BME280;36875;49.468;11.200;2023-04-24T01:49:42;96906.28;;;19.85;43.92
50057;BME280;36875;49.468;11.200;2023-04-24T01:52:08;96898.44;;;19.83;43.82
50057;BME280;36875;49.468;11.200;2023-04-24T01:54:33;96893.16;;;19.78;43.84
50057;BME280;36875;49.468;11.200;2023-04-24T01:57:00;96896.63;;;19.88;43.48
50057;BME280;36875;49.468;11.200;2023-04-24T01:59:28;96912.34;;;19.91;43.71
50057;BME280;36875;49.468;11.200;2023-04-24T02:01:53;96900.13;;;19.88;43.73
50057;BME280;36875;49.468;11.200;2023-04-24T02:04:19;96881.31;;;19.74;43.62
50057;BME280;36875;49.468;11.200;2023-04-24T02:06:44;96899.34;;;19.88;43.63
50057;BME280;36875;49.468;11.200;2023-04-24T02:09:10;96896.41;;;19.93;43.66
50057;BME280;36875;49.468;11.200;2023-04-24T02:11:36;96872.91;;;19.79;43.83
50057;BME280;36875;49.468;11.200;2023-04-24T02:14:03;96843.94;;;19.66;43.73
50057;BME280;36875;49.468;11.200;2023-04-24T02:16:28;96853.41;;;19.69;43.61
50057;BME280;36875;49.468;11.200;2023-04-24T02:18:58;96844.41;;;19.68;43.70
50057;BME280;36875;49.468;11.200;2023-04-24T02:21:23;96864.84;;;19.83;43.70
50057;BME280;36875;49.468;11.200;2023-04-24T02:23:49;96851.75;;;19.76;43.97
50057;BME280;36875;49.468;11.200;2023-04-24T02:26:15;96841.97;;;19.75;43.50
50057;BME280;36875;49.468;11.200;2023-04-24T02:28:40;96831.91;;;19.67;43.55
50057;BME280;36875;49.468;11.200;2023-04-24T02:31:07;96847.88;;;19.77;43.50
50057;BME280;36875;49.468;11.200;2023-04-24T02:33:33;96830.75;;;19.68;43.72
50057;BME280;36875;49.468;11.200;2023-04-24T02:35:58;96852.03;;;19.83;43.51
50057;BME280;36875;49.468;11.200;2023-04-24T02:38:24;96842.28;;;19.74;43.69
50057;BME280;36875;49.468;11.200;2023-04-24T02:40:50;96827.44;;;19.62;43.54
50057;BME280;36875;49.468;11.200;2023-04-24T02:43:16;96852.69;;;19.80;43.12
50057;BME280;36875;49.468;11.200;2023-04-24T02:45:41;96842.63;;;19.72;43.22
50057;BME280;36875;49.468;11.200;2023-04-24T02:48:08;96821.50;;;19.60;43.40
50057;BME280;36875;49.468;11.200;2023-04-24T02:50:34;96874.13;;;19.91;43.64
50057;BME280;36875;49.468;11.200;2023-04-24T02:52:59;96862.72;;;19.89;43.36
50057;BME280;36875;49.468;11.200;2023-04-24T02:55:25;96830.41;;;19.70;43.59
50057;BME280;36875;49.468;11.200;2023-04-24T02:57:51;96828.72;;;19.65;43.61
50057;BME280;36875;49.468;11.200;2023-04-24T03:00:16;96831.44;;;19.65;43.60
50057;BME280;36875;49.468;11.200;2023-04-24T03:02:42;96841.50;;;19.73;43.46
50057;BME280;36875;49.468;11.200;2023-04-24T03:05:09;96836.91;;;19.65;43.35
50057;BME280;36875;49.468;11.200;2023-04-24T03:07:37;96861.66;;;19.81;43.44
50057;BME280;36875;49.468;11.200;2023-04-24T03:10:03;96850.47;;;19.74;43.37
50057;BME280;36875;49.468;11.200;2023-04-24T03:12:29;96863.41;;;19.86;43.50
50057;BME280;36875;49.468;11.200;2023-04-24T03:14:55;96822.31;;;19.61;43.43
50057;BME280;36875;49.468;11.200;2023-04-24T03:17:20;96859.53;;;19.87;43.57
50057;BME280;36875;49.468;11.200;2023-04-24T03:19:46;96841.28;;;19.78;43.37
50057;BME280;36875;49.468;11.200;2023-04-24T03:22:13;96851.88;;;19.80;43.45
50057;BME280;36875;49.468;11.200;2023-04-24T03:24:38;96847.88;;;19.77;43.54
50057;BME280;36875;49.468;11.200;2023-04-24T03:27:04;96833.94;;;19.70;43.44
50057;BME280;36875;49.468;11.200;2023-04-24T03:29:30;96818.66;;;19.57;43.29
50057;BME280;36875;49.468;11.200;2023-04-24T03:31:55;96818.66;;;19.57;43.73
50057;BME280;36875;49.468;11.200;2023-04-24T03:34:21;96823.59;;;19.63;43.41
50057;BME280;36875;49.468;11.200;2023-04-24T03:36:46;96821.50;;;19.60;43.44
50057;BME280;36875;49.468;11.200;2023-04-24T03:39:16;96843.44;;;19.73;43.52
50057;BME280;36875;49.468;11.200;2023-04-24T03:41:42;96820.47;;;19.53;43.62
50057;BME280;36875;49.468;11.200;2023-04-24T03:44:08;96831.31;;;19.61;43.57
50057;BME280;36875;49.468;11.200;2023-04-24T03:46:33;96862.47;;;19.81;43.29
50057;BME280;36875;49.468;11.200;2023-04-24T03:48:59;96847.59;;;19.70;43.47
50057;BME280;36875;49.468;11.200;2023-04-24T03:51:24;96851.31;;;19.74;43.55
50057;BME280;36875;49.468;11.200;2023-04-24T03:53:50;96837.69;;;19.65;43.46
50057;BME280;36875;49.468;11.200;2023-04-24T03:56:17;96845.34;;;19.72;43.42
50057;BME280;36875;49.468;11.200;2023-04-24T03:58:43;96824.56;;;19.59;43.20
50057;BME280;36875;49.468;11.200;2023-04-24T04:01:08;96819.81;;;19.56;43.53
50057;BME280;36875;49.468;11.200;2023-04-24T04:03:34;96818.66;;;19.57;43.28
50057;BME280;36875;49.468;11.200;2023-04-24T04:06:00;96844.63;;;19.63;43.26
50057;BME280;36875;49.468;11.200;2023-04-24T04:08:25;96871.53;;;19.73;43.33
50057;BME280;36875;49.468;11.200;2023-04-24T04:10:51;96874.06;;;19.78;43.37
50057;BME280;36875;49.468;11.200;2023-04-24T04:13:18;96835.81;;;19.57;43.38
50057;BME280;36875;49.468;11.200;2023-04-24T04:15:44;96831.06;;;19.54;43.18
50057;BME280;36875;49.468;11.200;2023-04-24T04:18:09;96865.41;;;19.76;43.18
50057;BME280;36875;49.468;11.200;2023-04-24T04:20:35;96832.63;;;19.55;43.31
50057;BME280;36875;49.468;11.200;2023-04-24T04:23:00;96841.97;;;19.54;43.30
50057;BME280;36875;49.468;11.200;2023-04-24T04:25:26;96862.84;;;19.71;43.22
50057;BME280;36875;49.468;11.200;2023-04-24T04:27:52;96858.03;;;19.68;43.47
50057;BME280;36875;49.468;11.200;2023-04-24T04:30:18;96842.09;;;19.58;43.45
50057;BME280;36875;49.468;11.200;2023-04-24T04:32:46;96834.09;;;19.53;43.59
50057;BME280;36875;49.468;11.200;2023-04-24T04:35:12;96813.63;;;19.47;43.20
50057;BME280;36875;49.468;11.200;2023-04-24T04:37:37;96817.28;;;19.51;43.54
50057;BME280;36875;49.468;11.200;2023-04-24T04:40:04;96868.47;;;19.75;43.07
50057;BME280;36875;49.468;11.200;2023-04-24T04:42:32;96869.91;;;19.72;43.46
50057;BME280;36875;49.468;11.200;2023-04-24T04:44:59;96872.66;;;19.72;43.50
50057;BME280;36875;49.468;11.200;2023-04-24T04:47:26;96867.50;;;19.71;43.34
50057;BME280;36875;49.468;11.200;2023-04-24T04:49:53;96873.75;;;19.71;43.50
50057;BME280;36875;49.468;11.200;2023-04-24T04:52:19;96866.22;;;19.68;43.67
50057;BME280;36875;49.468;11.200;2023-04-24T04:54:44;96864.78;;;19.71;43.70
50057;BME280;36875;49.468;11.200;2023-04-24T04:57:11;96850.28;;;19.58;43.97
50057;BME280;36875;49.468;11.200;2023-04-24T04:59:37;96876.50;;;19.71;43.95
50057;BME280;36875;49.468;11.200;2023-04-24T05:02:02;96852.09;;;19.54;43.93
50057;BME280;36875;49.468;11.200;2023-04-24T05:04:29;96878.44;;;19.71;44.20
50057;BME280;36875;49.468;11.200;2023-04-24T05:06:55;96867.50;;;19.71;44.23
50057;BME280;36875;49.468;11.200;2023-04-24T05:09:21;96871.69;;;19.68;44.64
50057;BME280;36875;49.468;11.200;2023-04-24T05:11:47;96880.50;;;19.74;44.71
50057;BME280;36875;49.468;11.200;2023-04-24T05:14:12;96881.78;;;19.76;44.90
50057;BME280;36875;49.468;11.200;2023-04-24T05:16:38;96888.81;;;19.77;44.73
50057;BME280;36875;49.468;11.200;2023-04-24T05:19:04;96870.56;;;19.69;45.24
50057;BME280;36875;49.468;11.200;2023-04-24T05:21:30;96892.97;;;19.83;45.13
50057;BME280;36875;49.468;11.200;2023-04-24T05:23:56;96862.13;;;19.62;44.97
50057;BME280;36875;49.468;11.200;2023-04-24T05:26:22;96868.50;;;19.66;45.09
50057;BME280;36875;49.468;11.200;2023-04-24T05:28:48;96887.63;;;19.87;45.35
50057;BME280;36875;49.468;11.200;2023-04-24T05:31:16;96901.41;;;19.91;45.63
50057;BME280;36875;49.468;11.200;2023-04-24T05:33:43;96907.34;;;19.93;45.65
50057;BME280;36875;49.468;11.200;2023-04-24T05:36:08;96906.06;;;19.90;45.54
50057;BME280;36875;49.468;11.200;2023-04-24T05:38:35;96882.72;;;19.80;45.57
50057;BME280;36875;49.468;11.200;2023-04-24T05:41:01;96908.97;;;20.06;45.74
50057;BME280;36875;49.468;11.200;2023-04-24T05:43:27;96914.13;;;20.08;45.72
50057;BME280;36875;49.468;11.200;2023-04-24T05:45:52;96904.50;;;20.01;45.82
50057;BME280;36875;49.468;11.200;2023-04-24T05:48:18;96911.72;;;20.06;45.91
50057;BME280;36875;49.468;11.200;2023-04-24T05:50:44;96923.81;;;20.17;45.74
50057;BME280;36875;49.468;11.200;2023-04-24T05:53:09;96929.41;;;20.21;45.91
50057;BME280;36875;49.468;11.200;2023-04-24T05:55:37;96931.81;;;20.22;45.94
50057;BME280;36875;49.468;11.200;2023-04-24T05:58:02;96933.28;;;20.20;46.16
50057;BME280;36875;49.468;11.200;2023-04-24T06:00:28;96933.94;;;20.17;46.00
50057;BME280;36875;49.468;11.200;2023-04-24T06:02:54;96941.25;;;20.25;46.08
50057;BME280;36875;49.468;11.200;2023-04-24T06:05:20;96931.34;;;20.20;46.02
50057;BME280;36875;49.468;11.200;2023-04-24T06:07:46;96923.03;;;20.17;46.09
50057;BME280;36875;49.468;11.200;2023-04-24T06:10:11;96915.69;;;20.09;45.97
50057;BME280;36875;49.468;11.200;2023-04-24T06:12:38;96899.75;;;19.98;45.98
50057;BME280;36875;49.468;11.200;2023-04-24T06:15:04;96919.84;;;20.15;46.09
50057;BME280;36875;49.468;11.200;2023-04-24T06:17:30;96927.22;;;20.14;45.92
50057;BME280;36875;49.468;11.200;2023-04-24T06:19:56;96925.75;;;20.17;46.13
50057;BME280;36875;49.468;11.200;2023-04-24T06:22:21;96934.75;;;20.17;46.14
50057;BME280;36875;49.468;11.200;2023-04-24T06:24:47;96926.53;;;20.17;46.05
50057;BME280;36875;49.468;11.200;2023-04-24T06:27:13;96930.06;;;20.18;46.47
50057;BME280;36875;49.468;11.200;2023-04-24T06:29:40;96932.78;;;20.18;46.04
50057;BME280;36875;49.468;11.200;2023-04-24T06:32:06;96925.16;;;20.11;46.06
50057;BME280;36875;49.468;11.200;2023-04-24T06:34:32;96930.44;;;20.16;46.17
50057;BME280;36875;49.468;11.200;2023-04-24T06:36:59;96933.63;;;20.18;46.20
50057;BME280;36875;49.468;11.200;2023-04-24T06:39:25;96945.34;;;20.19;46.10
50057;BME280;36875;49.468;11.200;2023-04-24T06:41:52;96944.22;;;20.20;46.20
50057;BME280;36875;49.468;11.200;2023-04-24T06:44:18;96942.47;;;20.15;46.01
50057;BME280;36875;49.468;11.200;2023-04-24T06:46:45;96954.00;;;20.21;46.34
50057;BME280;36875;49.468;11.200;2023-04-24T06:49:10;96965.72;;;20.21;45.82
50057;BME280;36875;49.468;11.200;2023-04-24T06:51:36;96965.25;;;20.19;45.97
50057;BME280;36875;49.468;11.200;2023-04-24T06:54:01;96946.56;;;20.09;46.22
50057;BME280;36875;49.468;11.200;2023-04-24T06:56:27;96955.94;;;20.20;46.13
50057;BME280;36875;49.468;11.200;2023-04-24T06:58:54;96949.88;;;20.15;46.25
50057;BME280;36875;49.468;11.200;2023-04-24T07:01:22;96965.56;;;20.18;46.15
50057;BME280;36875;49.468;11.200;2023-04-24T07:03:49;96967.97;;;20.19;46.08
50057;BME280;36875;49.468;11.200;2023-04-24T07:06:15;96965.94;;;20.16;46.15
50057;BME280;36875;49.468;11.200;2023-04-24T07:08:43;96972.66;;;20.19;45.83
50057;BME280;36875;49.468;11.200;2023-04-24T07:11:09;96980.06;;;20.18;46.10
50057;BME280;36875;49.468;11.200;2023-04-24T07:13:34;96973.44;;;20.19;45.91
50057;BME280;36875;49.468;11.200;2023-04-24T07:16:00;96976.16;;;20.19;46.04
50057;BME280;36875;49.468;11.200;2023-04-24T07:18:26;96974.13;;;20.16;45.87
50057;BME280;36875;49.468;11.200;2023-04-24T07:20:53;96971.41;;;20.16;46.15
50057;BME280;36875;49.468;11.200;2023-04-24T07:23:19;96977.31;;;20.18;45.81
50057;BME280;36875;49.468;11.200;2023-04-24T07:25:45;96981.63;;;20.19;45.89
50057;BME280;36875;49.468;11.200;2023-04-24T07:28:10;96993.84;;;20.22;46.08
50057;BME280;36875;49.468;11.200;2023-04-24T07:30:36;96987.78;;;20.16;46.22
50057;BME280;36875;49.468;11.200;2023-04-24T07:33:01;96990.66;;;20.20;46.01
50057;BME280;36875;49.468;11.200;2023-04-24T07:35:27;96988.25;;;20.18;45.95
50057;BME280;36875;49.468;11.200;2023-04-24T07:37:54;96977.84;;;20.12;46.23
50057;BME280;36875;49.468;11.200;2023-04-24T07:40:20;96977.25;;;20.06;46.21
50057;BME280;36875;49.468;11.200;2023-04-24T07:42:45;96998.72;;;20.16;46.24
50057;BME280;36875;49.468;11.200;2023-04-24T07:45:13;97014.09;;;20.21;46.32
50057;BME280;36875;49.468;11.200;2023-04-24T07:47:39;97005.75;;;20.17;46.51
50057;BME280;36875;49.468;11.200;2023-04-24T07:50:09;96973.16;;;20.00;46.26
50057;BME280;36875;49.468;11.200;2023-04-24T07:52:35;97017.63;;;20.21;46.18
50057;BME280;36875;49.468;11.200;2023-04-24T07:55:03;97013.97;;;20.38;46.06
50057;BME280;36875;49.468;11.200;2023-04-24T07:57:28;97023.13;;;20.34;46.25
50057;BME280;36875;49.468;11.200;2023-04-24T07:59:54;97012.97;;;20.22;46.31
50057;BME280;36875;49.468;11.200;2023-04-24T08:02:20;97017.63;;;20.21;46.19
50057;BME280;36875;49.468;11.200;2023-04-24T08:04:51;97024.56;;;20.19;46.22
50057;BME280;36875;49.468;11.200;2023-04-24T08:07:16;97028.41;;;20.18;46.29
50057;BME280;36875;49.468;11.200;2023-04-24T08:09:42;97015.75;;;20.13;46.24
50057;BME280;36875;49.468;11.200;2023-04-24T08:12:09;97021.03;;;20.18;46.47
50057;BME280;36875;49.468;11.200;2023-04-24T08:14:34;97024.09;;;20.17;46.04
50057;BME280;36875;49.468;11.200;2023-04-24T08:17:00;97027.63;;;20.17;46.28
50057;BME280;36875;49.468;11.200;2023-04-24T08:19:26;97026.81;;;20.17;46.06
50057;BME280;36875;49.468;11.200;2023-04-24T08:21:52;97015.91;;;20.17;46.29
50057;BME280;36875;49.468;11.200;2023-04-24T08:24:17;97024.09;;;20.17;46.05
50057;BME280;36875;49.468;11.200;2023-04-24T08:26:43;97020.56;;;20.16;46.27
50057;BME280;36875;49.468;11.200;2023-04-24T08:29:13;97027.63;;;20.17;46.22
50057;BME280;36875;49.468;11.200;2023-04-24T08:31:38;97016.09;;;20.12;46.40
50057;BME280;36875;49.468;11.200;2023-04-24T08:34:04;97033.09;;;20.17;46.14
50057;BME280;36875;49.468;11.200;2023-04-24T08:36:29;97021.41;;;20.08;46.34
50057;BME280;36875;49.468;11.200;2023-04-24T08:38:55;97020.03;;;20.02;46.43
50057;BME280;36875;49.468;11.200;2023-04-24T08:41:21;97043.22;;;20.17;46.17
50057;BME280;36875;49.468;11.200;2023-04-24T08:43:50;97033.50;;;20.07;46.41
50057;BME280;36875;49.468;11.200;2023-04-24T08:46:18;97031.09;;;20.06;46.40
50057;BME280;36875;49.468;11.200;2023-04-24T08:48:45;97004.69;;;19.89;46.38
50057;BME280;36875;49.468;11.200;2023-04-24T08:51:11;97048.22;;;20.15;46.01
50057;BME280;36875;49.468;11.200;2023-04-24T08:53:37;97054.78;;;20.14;46.26
50057;BME280;36875;49.468;11.200;2023-04-24T08:56:03;97053.81;;;20.18;46.33
50057;BME280;36875;49.468;11.200;2023-04-24T08:58:31;97015.09;;;19.95;46.26
50057;BME280;36875;49.468;11.200;2023-04-24T09:00:57;97048.69;;;20.17;46.21
50057;BME280;36875;49.468;11.200;2023-04-24T09:03:27;97047.88;;;20.16;46.27
50057;BME280;36875;49.468;11.200;2023-04-24T09:05:55;97047.88;;;20.16;46.18
50057;BME280;36875;49.468;11.200;2023-04-24T09:08:24;97036.22;;;20.07;46.21
50057;BME280;36875;49.468;11.200;2023-04-24T09:10:50;97056.09;;;20.16;46.16
50057;BME280;36875;49.468;11.200;2023-04-24T09:13:15;97045.63;;;20.18;46.13
50057;BME280;36875;49.468;11.200;2023-04-24T09:15:42;97026.88;;;20.08;46.13
50057;BME280;36875;49.468;11.200;2023-04-24T09:18:08;97061.53;;;20.16;45.84
50057;BME280;36875;49.468;11.200;2023-04-24T09:20:35;97057.25;;;20.07;46.18
50057;BME280;36875;49.468;11.200;2023-04-24T09:23:20;97059.84;;;20.03;46.29
50057;BME280;36875;49.468;11.200;2023-04-24T09:25:54;97058.25;;;20.02;46.35
50057;BME280;36875;49.468;11.200;2023-04-24T09:28:25;97052.81;;;20.02;46.16
50057;BME280;36875;49.468;11.200;2023-04-24T09:31:05;97034.81;;;20.01;45.40
50057;BME280;36875;49.468;11.200;2023-04-24T09:33:31;97034.94;;;20.05;45.04
50057;BME280;36875;49.468;11.200;2023-04-24T09:35:58;97028.38;;;20.06;44.30
50057;BME280;36875;49.468;11.200;2023-04-24T09:38:31;97014.44;;;19.98;44.26
50057;BME280;36875;49.468;11.200;2023-04-24T09:40:59;97026.41;;;20.06;44.32
50057;BME280;36875;49.468;11.200;2023-04-24T09:43:26;97029.00;;;20.02;44.66
50057;BME280;36875;49.468;11.200;2023-04-24T09:45:55;97041.06;;;20.01;44.59
50057;BME280;36875;49.468;11.200;2023-04-24T09:48:30;97054.84;;;20.05;44.89
50057;BME280;36875;49.468;11.200;2023-04-24T09:50:57;97052.94;;;20.06;44.69
50057;BME280;36875;49.468;11.200;2023-04-24T09:53:24;97042.81;;;20.06;44.43
50057;BME280;36875;49.468;11.200;2023-04-24T09:55:50;97047.63;;;20.09;44.69
50057;BME280;36875;49.468;11.200;2023-04-24T09:58:15;97033.97;;;20.09;44.51
50057;BME280;36875;49.468;11.200;2023-04-24T10:00:41;97032.81;;;20.10;44.43
50057;BME280;36875;49.468;11.200;2023-04-24T10:03:07;97040.69;;;20.12;45.01
50057;BME280;36875;49.468;11.200;2023-04-24T10:05:34;97048.41;;;20.10;44.47
50057;BME280;36875;49.468;11.200;2023-04-24T10:08:03;97047.47;;;20.06;44.95
50057;BME280;36875;49.468;11.200;2023-04-24T10:10:28;97038.53;;;19.96;44.88
50057;BME280;36875;49.468;11.200;2023-04-24T10:12:54;97054.53;;;20.07;44.86
50057;BME280;36875;49.468;11.200;2023-04-24T10:15:20;97043.78;;;20.01;44.78
50057;BME280;36875;49.468;11.200;2023-04-24T10:17:47;97058.41;;;20.06;44.87
50057;BME280;36875;49.468;11.200;2023-04-24T10:20:18;97064.66;;;20.06;44.85
50057;BME280;36875;49.468;11.200;2023-04-24T10:25:28;97047.53;;;19.97;44.93
50057;BME280;36875;49.468;11.200;2023-04-24T10:27:54;97052.66;;;19.98;45.21
50057;BME280;36875;49.468;11.200;2023-04-24T10:30:26;97050.25;;;19.97;45.04
50057;BME280;36875;49.468;11.200;2023-04-24T10:32:52;97052.81;;;20.02;44.23
50057;BME280;36875;49.468;11.200;2023-04-24T10:35:18;97056.78;;;20.05;43.84
50057;BME280;36875;49.468;11.200;2023-04-24T10:37:48;97045.53;;;20.06;43.19
50057;BME280;36875;49.468;11.200;2023-04-24T10:40:17;97053.06;;;20.09;43.33
50057;BME280;36875;49.468;11.200;2023-04-24T10:42:47;97072.19;;;20.09;43.50
50057;BME280;36875;49.468;11.200;2023-04-24T10:45:16;97060.13;;;20.10;43.30
50057;BME280;36875;49.468;11.200;2023-04-24T10:47:51;97058.53;;;20.09;43.34
50057;BME280;36875;49.468;11.200;2023-04-24T10:50:16;97067.84;;;20.08;43.39
50057;BME280;36875;49.468;11.200;2023-04-24T10:52:45;97095.13;;;20.17;43.24
50057;BME280;36875;49.468;11.200;2023-04-24T10:55:12;97098.63;;;20.17;43.59
50057;BME280;36875;49.468;11.200;2023-04-24T10:57:38;97094.31;;;20.16;43.57
50057;BME280;36875;49.468;11.200;2023-04-24T11:00:14;97105.75;;;20.10;43.57
50057;BME280;36875;49.468;11.200;2023-04-24T11:02:40;97117.63;;;20.14;43.60
50057;BME280;36875;49.468;11.200;2023-04-24T11:05:14;97120.69;;;20.12;44.15
50057;BME280;36875;49.468;11.200;2023-04-24T11:10:39;97125.69;;;20.10;44.18
50057;BME280;36875;49.468;11.200;2023-04-24T11:13:04;97126.50;;;20.11;44.22
50057;BME280;36875;49.468;11.200;2023-04-24T11:15:31;97130.34;;;20.10;44.35
50057;BME280;36875;49.468;11.200;2023-04-24T11:17:57;97120.22;;;20.10;44.33
50057;BME280;36875;49.468;11.200;2023-04-24T11:20:23;97113.50;;;20.08;44.45
50057;BME280;36875;49.468;11.200;2023-04-24T11:22:52;97119.41;;;20.10;44.91
50057;BME280;36875;49.468;11.200;2023-04-24T11:25:18;97117.81;;;20.09;44.69
50057;BME280;36875;49.468;11.200;2023-04-24T11:27:44;97117.81;;;20.09;44.78
50057;BME280;36875;49.468;11.200;2023-04-24T11:30:17;97132.28;;;20.09;44.50
50057;BME280;36875;49.468;11.200;2023-04-24T11:32:48;97127.28;;;20.11;44.44
50057;BME280;36875;49.468;11.200;2023-04-24T11:35:16;97140.47;;;20.09;44.55
50057;BME280;36875;49.468;11.200;2023-04-24T11:37:43;97125.06;;;20.05;44.67
50057;BME280;36875;49.468;11.200;2023-04-24T11:40:12;97124.41;;;20.08;44.66
50057;BME280;36875;49.468;11.200;2023-04-24T11:42:40;97121.38;;;20.09;44.53
50057;BME280;36875;49.468;11.200;2023-04-24T11:45:10;97126.34;;;20.07;44.48
50057;BME280;36875;49.468;11.200;2023-04-24T11:47:36;97125.53;;;20.07;44.26
50057;BME280;36875;49.468;11.200;2023-04-24T11:50:06;97111.75;;;20.03;44.25
50057;BME280;36875;49.468;11.200;2023-04-24T11:52:32;97117.66;;;20.05;44.30
50057;BME280;36875;49.468;11.200;2023-04-24T11:54:59;97120.75;;;20.03;44.33
50057;BME280;36875;49.468;11.200;2023-04-24T11:57:25;97113.34;;;20.04;44.45
50057;BME280;36875;49.468;11.200;2023-04-24T11:59:54;97118.53;;;19.97;44.59
50057;BME280;36875;49.468;11.200;2023-04-24T12:02:23;97126.53;;;20.02;44.56
50057;BME280;36875;49.468;11.200;2023-04-24T12:04:49;97123.66;;;19.98;44.47
50057;BME280;36875;49.468;11.200;2023-04-24T12:07:16;97138.28;;;19.94;44.39
50057;BME280;36875;49.468;11.200;2023-04-24T12:09:43;97146.31;;;19.99;44.49
50057;BME280;36875;49.468;11.200;2023-04-24T12:12:09;97122.88;;;19.98;44.04
50057;BME280;36875;49.468;11.200;2023-04-24T12:14:42;97145.53;;;19.98;44.07
50057;BME280;36875;49.468;11.200;2023-04-24T12:17:08;97150.19;;;19.98;44.07
50057;BME280;36875;49.468;11.200;2023-04-24T12:19:33;97151.78;;;19.99;43.80
50057;BME280;36875;49.468;11.200;2023-04-24T12:22:00;97146.97;;;19.96;44.11
50057;BME280;36875;49.468;11.200;2023-04-24T12:24:27;97154.81;;;19.97;43.91
50057;BME280;36875;49.468;11.200;2023-04-24T12:26:52;97152.91;;;19.98;43.92
50057;BME280;36875;49.468;11.200;2023-04-24T12:29:20;97154.34;;;19.95;44.06
50057;BME280;36875;49.468;11.200;2023-04-24T12:31:45;97153.88;;;19.93;43.76
50057;BME280;36875;49.468;11.200;2023-04-24T12:34:17;97154.81;;;19.97;43.88
50057;BME280;36875;49.468;11.200;2023-04-24T12:36:43;97150.84;;;19.95;43.94
50057;BME280;36875;49.468;11.200;2023-04-24T12:39:14;97159.50;;;19.97;43.77
50057;BME280;36875;49.468;11.200;2023-04-24T12:41:50;97157.88;;;19.96;43.74
50057;BME280;36875;49.468;11.200;2023-04-24T12:44:16;97155.97;;;19.96;43.76
50057;BME280;36875;49.468;11.200;2023-04-24T12:46:41;97143.13;;;19.97;43.85
50057;BME280;36875;49.468;11.200;2023-04-24T12:49:07;97118.81;;;19.74;43.92
50057;BME280;36875;49.468;11.200;2023-04-24T12:51:32;97157.09;;;19.95;44.04
50057;BME280;36875;49.468;11.200;2023-04-24T12:53:58;97152.28;;;19.92;43.89